Time;durP1;ratioP1;P1;durP2;ratioP2;P2;SDS_P1;SDS_P2;PMS_P1;PMS_P2;Temp;Humidity;BMP_temperature;BMP_pressure;BME280_temperature;BME280_humidity;BME280_pressure;Samples;Min_cycle;Max_cycle;Signal;HPM_P1;HPM_P2
2022/07/29 00:01:36;0.00;0.00;0.62;0.00;0.00;0.62;1.83;1.00;;;27.70;23.20;;;;;;2223514;62;20382;-64
2022/07/29 00:04:22;0.00;0.00;0.62;0.00;0.00;0.62;2.30;1.47;;;27.70;23.20;;;;;;2222099;62;20438;-65
2022/07/29 00:07:07;0.00;0.00;0.62;0.00;0.00;0.62;2.57;1.50;;;27.70;23.20;;;;;;2221877;62;20388;-68
2022/07/29 00:09:51;0.00;0.00;0.62;0.00;0.00;0.62;2.20;1.47;;;27.70;23.20;;;;;;2221973;62;20370;-65
2022/07/29 00:12:36;0.00;0.00;0.62;0.00;0.00;0.62;3.13;1.60;;;27.80;23.20;;;;;;2543852;46;20408;-63
2022/07/29 00:15:21;0.00;0.00;0.62;0.00;0.00;0.62;1.83;1.30;;;27.80;23.30;;;;;;2222445;62;20746;-64
2022/07/29 00:18:06;0.00;0.00;0.62;0.00;0.00;0.62;3.37;1.47;;;27.80;23.20;;;;;;2222139;62;20756;-66
2022/07/29 00:20:52;0.00;0.00;0.62;0.00;0.00;0.62;2.63;1.40;;;27.80;23.20;;;;;;2223909;62;20379;-63
2022/07/29 00:23:37;0.00;0.00;0.62;0.00;0.00;0.62;1.70;1.30;;;27.80;23.20;;;;;;2222330;62;20402;-63
2022/07/29 00:26:23;0.00;0.00;0.62;0.00;0.00;0.62;2.80;1.53;;;27.80;23.20;;;;;;2222131;62;20371;-63
2022/07/29 00:29:08;0.00;0.00;0.62;0.00;0.00;0.62;1.70;1.20;;;27.80;23.10;;;;;;2221719;62;20397;-63
2022/07/29 00:31:53;0.00;0.00;0.62;0.00;0.00;0.62;2.00;1.23;;;27.80;23.00;;;;;;2221998;62;20451;-62
2022/07/29 00:37:43;0.00;0.00;0.62;0.00;0.00;0.62;2.70;1.63;;;27.80;23.50;;;;;;2222369;62;20366;-62
2022/07/29 00:40:28;0.00;0.00;0.62;0.00;0.00;0.62;2.60;1.30;;;27.80;22.90;;;;;;2221973;62;20386;-62
2022/07/29 00:43:14;0.00;0.00;0.62;0.00;0.00;0.62;2.03;1.30;;;27.80;22.90;;;;;;2221585;62;20398;-63
2022/07/29 00:45:59;0.00;0.00;0.62;0.00;0.00;0.62;3.23;1.23;;;27.80;22.80;;;;;;2221942;62;20367;-63
2022/07/29 00:48:43;0.00;0.00;0.62;0.00;0.00;0.62;3.30;1.40;;;27.80;22.80;;;;;;2221944;62;20439;-62
2022/07/29 00:51:30;0.00;0.00;0.62;0.00;0.00;0.62;2.13;1.40;;;27.80;22.80;;;;;;2221605;62;20392;-63
2022/07/29 00:54:16;0.00;0.00;0.62;0.00;0.00;0.62;2.97;1.30;;;27.70;22.70;;;;;;2222082;62;20625;-63
2022/07/29 00:57:01;0.00;0.00;0.62;0.00;0.00;0.62;2.27;1.27;;;27.70;22.80;;;;;;2221635;62;20630;-63
2022/07/29 00:59:46;0.00;0.00;0.62;0.00;0.00;0.62;2.10;1.20;;;27.70;22.70;;;;;;2222434;62;20731;-63
2022/07/29 01:02:33;0.00;0.00;0.62;0.00;0.00;0.62;4.23;1.77;;;27.70;22.70;;;;;;2566296;46;20731;-62
2022/07/29 01:05:20;0.00;0.00;0.62;0.00;0.00;0.62;4.73;1.47;;;27.70;22.70;;;;;;2221604;62;20363;-62
2022/07/29 01:08:06;0.00;0.00;0.62;0.00;0.00;0.62;3.80;1.63;;;27.70;22.70;;;;;;2222546;62;20359;-62
2022/07/29 01:10:53;0.00;0.00;0.62;0.00;0.00;0.62;3.50;1.30;;;27.60;22.60;;;;;;2223884;62;20377;-62
2022/07/29 01:13:38;0.00;0.00;0.62;0.00;0.00;0.62;1.50;1.00;;;27.70;22.70;;;;;;2226343;62;20389;-62
2022/07/29 01:16:37;0.00;0.00;0.62;0.00;0.00;0.62;2.43;1.40;;;27.60;22.60;;;;;;2226636;62;20723;-62
2022/07/29 01:19:49;0.00;0.00;0.62;0.00;0.00;0.62;2.20;1.20;;;27.60;23.20;;;;;;2226208;62;20450;-63
2022/07/29 01:23:10;0.00;0.00;0.62;0.00;0.00;0.62;3.20;1.47;;;27.60;22.60;;;;;;2665636;46;20439;-62
2022/07/29 01:26:13;0.00;0.00;0.62;0.00;0.00;0.62;2.53;1.30;;;27.60;22.60;;;;;;2224368;62;20385;-62
2022/07/29 01:29:07;0.00;0.00;0.62;0.00;0.00;0.62;3.70;1.60;;;27.50;22.60;;;;;;2226738;62;20374;-63
2022/07/29 01:31:59;0.00;0.00;0.62;0.00;0.00;0.62;2.83;1.30;;;27.50;22.60;;;;;;2225349;62;20386;-63
2022/07/29 01:34:51;0.00;0.00;0.62;0.00;0.00;0.62;2.90;1.70;;;27.50;22.60;;;;;;2222145;62;20375;-63
2022/07/29 01:37:44;0.00;0.00;0.62;0.00;0.00;0.62;2.70;1.23;;;27.50;22.60;;;;;;2222833;62;20422;-62
2022/07/29 01:40:35;0.00;0.00;0.62;0.00;0.00;0.62;3.17;1.70;;;27.40;22.60;;;;;;2222566;62;20371;-62
2022/07/29 01:43:26;0.00;0.00;0.62;0.00;0.00;0.62;1.97;1.50;;;27.40;22.60;;;;;;2222191;62;20635;-62
2022/07/29 01:46:20;0.00;0.00;0.62;0.00;0.00;0.62;1.70;1.10;;;27.40;22.60;;;;;;2222656;62;20412;-62
2022/07/29 01:49:13;0.00;0.00;0.62;0.00;0.00;0.62;2.97;1.20;;;27.40;22.60;;;;;;2222009;62;20375;-63
2022/07/29 01:52:03;0.00;0.00;0.62;0.00;0.00;0.62;2.60;1.40;;;27.40;22.60;;;;;;2225893;62;20378;-62
2022/07/29 01:54:54;0.00;0.00;0.62;0.00;0.00;0.62;2.37;1.50;;;27.30;22.60;;;;;;2226690;62;20385;-62
2022/07/29 01:57:43;0.00;0.00;0.62;0.00;0.00;0.62;2.70;1.80;;;27.30;22.60;;;;;;2225956;62;20623;-61
2022/07/29 02:00:31;0.00;0.00;0.62;0.00;0.00;0.62;2.07;1.30;;;27.30;22.60;;;;;;2225855;62;20492;-61
2022/07/29 02:03:18;0.00;0.00;0.62;0.00;0.00;0.62;1.97;1.30;;;27.30;22.60;;;;;;2222804;62;20419;-62
2022/07/29 02:06:07;0.00;0.00;0.62;0.00;0.00;0.62;2.00;1.30;;;27.20;22.60;;;;;;2222746;62;20757;-61
2022/07/29 02:08:53;0.00;0.00;0.62;0.00;0.00;0.62;2.20;1.33;;;27.20;22.60;;;;;;2222535;62;20702;-62
2022/07/29 02:11:40;0.00;0.00;0.62;0.00;0.00;0.62;1.70;1.30;;;27.20;22.60;;;;;;2224672;62;20462;-62
2022/07/29 02:14:27;0.00;0.00;0.62;0.00;0.00;0.62;2.43;1.30;;;27.20;22.60;;;;;;2226597;62;20393;-61
2022/07/29 02:17:13;0.00;0.00;0.62;0.00;0.00;0.62;2.60;1.60;;;27.20;22.60;;;;;;2226509;62;20370;-62
2022/07/29 02:20:02;0.00;0.00;0.62;0.00;0.00;0.62;1.73;1.27;;;27.20;22.60;;;;;;2225667;62;20400;-62
2022/07/29 02:22:50;0.00;0.00;0.62;0.00;0.00;0.62;2.03;1.27;;;27.10;22.60;;;;;;2218584;62;20415;-62
2022/07/29 02:25:35;0.00;0.00;0.62;0.00;0.00;0.62;4.60;1.50;;;27.10;22.60;;;;;;2218600;62;20417;-62
2022/07/29 02:28:24;0.00;0.00;0.62;0.00;0.00;0.62;2.43;1.70;;;27.10;22.60;;;;;;2218716;62;20375;-61
2022/07/29 02:31:10;0.00;0.00;0.62;0.00;0.00;0.62;2.20;1.30;;;27.10;22.60;;;;;;2222177;62;20382;-62
2022/07/29 02:33:57;0.00;0.00;0.62;0.00;0.00;0.62;1.70;1.20;;;27.00;22.60;;;;;;2228083;62;20386;-62
2022/07/29 02:36:45;0.00;0.00;0.62;0.00;0.00;0.62;2.60;1.30;;;27.00;22.60;;;;;;2226675;62;20391;-62
2022/07/29 02:39:31;0.00;0.00;0.62;0.00;0.00;0.62;2.00;1.40;;;27.00;22.60;;;;;;2226526;62;20374;-62
2022/07/29 02:42:18;0.00;0.00;0.62;0.00;0.00;0.62;2.37;1.50;;;27.00;22.60;;;;;;2222013;62;20455;-62
2022/07/29 02:45:03;0.00;0.00;0.62;0.00;0.00;0.62;4.63;1.20;;;27.00;22.70;;;;;;2222450;62;20398;-62
2022/07/29 02:47:51;0.00;0.00;0.62;0.00;0.00;0.62;3.10;1.37;;;27.00;22.70;;;;;;2222211;62;20379;-62
2022/07/29 02:50:41;0.00;0.00;0.62;0.00;0.00;0.62;3.00;1.43;;;27.00;22.70;;;;;;2222486;62;20375;-62
2022/07/29 02:53:32;0.00;0.00;0.62;0.00;0.00;0.62;2.97;1.40;;;26.90;22.70;;;;;;2222385;62;20459;-62
2022/07/29 02:56:23;0.00;0.00;0.62;0.00;0.00;0.62;2.00;1.40;;;26.90;22.70;;;;;;2221920;62;20371;-61
2022/07/29 02:59:11;0.00;0.00;0.62;0.00;0.00;0.62;3.17;1.50;;;26.90;22.70;;;;;;2222707;62;20428;-61
2022/07/29 03:01:58;0.00;0.00;0.62;0.00;0.00;0.62;3.30;1.60;;;26.90;22.70;;;;;;2222262;62;20687;-62
2022/07/29 03:04:44;0.00;0.00;0.62;0.00;0.00;0.62;2.10;1.33;;;26.90;22.70;;;;;;2221992;62;20394;-62
2022/07/29 03:07:31;0.00;0.00;0.62;0.00;0.00;0.62;2.40;1.50;;;26.80;22.70;;;;;;2222380;62;20378;-62
2022/07/29 03:10:18;0.00;0.00;0.62;0.00;0.00;0.62;1.80;1.40;;;26.80;22.70;;;;;;2221576;62;20802;-63
2022/07/29 03:13:04;0.00;0.00;0.62;0.00;0.00;0.62;1.83;1.30;;;26.80;22.70;;;;;;2222629;62;20517;-62
2022/07/29 03:15:50;0.00;0.00;0.62;0.00;0.00;0.62;3.20;1.30;;;26.80;22.70;;;;;;2222450;62;20398;-62
2022/07/29 03:18:37;0.00;0.00;0.62;0.00;0.00;0.62;3.33;1.87;;;26.80;22.80;;;;;;2221868;62;20362;-61
2022/07/29 03:21:21;0.00;0.00;0.62;0.00;0.00;0.62;2.13;1.50;;;26.80;22.80;;;;;;2222410;62;20476;-64
2022/07/29 03:24:06;0.00;0.00;0.62;0.00;0.00;0.62;1.90;1.20;;;26.80;22.80;;;;;;2222252;62;20443;-62
2022/07/29 03:26:54;0.00;0.00;0.62;0.00;0.00;0.62;2.63;1.40;;;26.70;22.80;;;;;;2224346;62;20492;-63
2022/07/29 03:29:39;0.00;0.00;0.62;0.00;0.00;0.62;2.10;1.33;;;26.70;22.80;;;;;;2222081;62;20440;-63
2022/07/29 03:32:23;0.00;0.00;0.62;0.00;0.00;0.62;2.33;1.50;;;26.70;22.80;;;;;;2225455;62;20386;-62
2022/07/29 03:35:08;0.00;0.00;0.62;0.00;0.00;0.62;2.80;1.37;;;26.70;22.80;;;;;;2226449;62;20370;-62
2022/07/29 03:37:53;0.00;0.00;0.62;0.00;0.00;0.62;2.80;1.83;;;26.70;22.80;;;;;;2226090;62;20720;-63
2022/07/29 03:40:43;0.00;0.00;0.62;0.00;0.00;0.62;2.23;1.33;;;26.60;22.80;;;;;;2224607;62;20589;-62
2022/07/29 03:43:32;0.00;0.00;0.62;0.00;0.00;0.62;2.30;1.60;;;26.60;22.90;;;;;;2222484;62;20402;-63
2022/07/29 03:46:20;0.00;0.00;0.62;0.00;0.00;0.62;1.90;1.27;;;26.60;22.90;;;;;;2222344;62;20702;-63
2022/07/29 03:49:08;0.00;0.00;0.62;0.00;0.00;0.62;2.20;1.20;;;26.60;22.90;;;;;;2221824;62;20408;-63
2022/07/29 03:51:53;0.00;0.00;0.62;0.00;0.00;0.62;2.70;1.43;;;26.60;22.90;;;;;;2225102;62;20435;-63
2022/07/29 03:54:39;0.00;0.00;0.62;0.00;0.00;0.62;2.63;1.10;;;26.50;22.90;;;;;;2225721;62;20501;-61
2022/07/29 03:57:27;0.00;0.00;0.62;0.00;0.00;0.62;2.40;1.50;;;26.50;23.00;;;;;;2226354;62;20407;-62
2022/07/29 04:00:15;0.00;0.00;0.62;0.00;0.00;0.62;2.17;1.50;;;26.50;23.00;;;;;;2222210;62;20383;-62
2022/07/29 04:03:01;0.00;0.00;0.62;0.00;0.00;0.62;4.10;1.60;;;26.50;23.00;;;;;;2221689;62;20391;-61
2022/07/29 04:05:58;0.00;0.00;0.62;0.00;0.00;0.62;3.03;1.20;;;26.50;23.00;;;;;;2222332;62;20424;-62
2022/07/29 04:08:43;0.00;0.00;0.62;0.00;0.00;0.62;2.83;1.70;;;26.50;23.00;;;;;;2222320;62;20380;-61
2022/07/29 04:11:28;0.00;0.00;0.62;0.00;0.00;0.62;1.80;1.33;;;26.40;23.00;;;;;;2224086;62;20633;-62
2022/07/29 04:14:13;0.00;0.00;0.62;0.00;0.00;0.62;1.70;1.30;;;26.40;23.00;;;;;;2226078;62;20381;-62
2022/07/29 04:16:59;0.00;0.00;0.62;0.00;0.00;0.62;2.40;1.50;;;26.40;23.00;;;;;;2225909;62;20473;-62
2022/07/29 04:19:43;0.00;0.00;0.62;0.00;0.00;0.62;3.53;1.90;;;26.40;23.00;;;;;;2226173;62;20410;-61
2022/07/29 04:22:28;0.00;0.00;0.62;0.00;0.00;0.62;3.37;1.60;;;26.40;23.00;;;;;;2565503;46;20599;-61
2022/07/29 04:25:13;0.00;0.00;0.62;0.00;0.00;0.62;2.47;1.50;;;26.40;23.00;;;;;;2217722;62;20771;-62
2022/07/29 04:28:00;0.00;0.00;0.62;0.00;0.00;0.62;2.33;1.70;;;26.30;22.90;;;;;;2218550;62;20375;-61
2022/07/29 04:30:45;0.00;0.00;0.62;0.00;0.00;0.62;3.50;1.77;;;26.30;22.90;;;;;;2220546;62;20378;-62
2022/07/29 04:33:31;0.00;0.00;0.62;0.00;0.00;0.62;2.70;1.60;;;26.30;22.90;;;;;;2225545;62;20597;-61
2022/07/29 04:36:16;0.00;0.00;0.62;0.00;0.00;0.62;2.47;1.60;;;26.30;22.90;;;;;;2226211;62;20374;-61
2022/07/29 04:39:01;0.00;0.00;0.62;0.00;0.00;0.62;2.80;1.40;;;26.30;22.90;;;;;;2225537;62;20390;-62
2022/07/29 04:41:47;0.00;0.00;0.62;0.00;0.00;0.62;2.70;1.63;;;26.30;22.90;;;;;;2226048;62;20423;-61
2022/07/29 04:44:31;0.00;0.00;0.62;0.00;0.00;0.62;2.60;1.40;;;26.20;22.90;;;;;;2228231;62;20511;-61
2022/07/29 04:47:16;0.00;0.00;0.62;0.00;0.00;0.62;2.63;1.63;;;26.20;22.90;;;;;;2225416;62;20373;-63
2022/07/29 04:50:02;0.00;0.00;0.62;0.00;0.00;0.62;3.23;1.67;;;26.20;22.90;;;;;;2226095;62;20730;-61
2022/07/29 04:52:47;0.00;0.00;0.62;0.00;0.00;0.62;3.73;1.60;;;26.20;22.90;;;;;;2218143;62;20641;-61
2022/07/29 04:55:32;0.00;0.00;0.62;0.00;0.00;0.62;2.77;1.50;;;26.20;22.90;;;;;;2217809;62;20416;-62
2022/07/29 04:58:17;0.00;0.00;0.62;0.00;0.00;0.62;2.03;1.63;;;26.20;22.90;;;;;;2218427;62;20414;-62
2022/07/29 05:01:03;0.00;0.00;0.62;0.00;0.00;0.62;2.10;1.60;;;26.10;22.90;;;;;;2219236;62;20461;-62
2022/07/29 05:03:48;0.00;0.00;0.62;0.00;0.00;0.62;2.50;1.40;;;26.20;23.00;;;;;;2222225;62;20763;-62
2022/07/29 05:06:34;0.00;0.00;0.62;0.00;0.00;0.62;4.70;1.93;;;26.20;23.10;;;;;;2222000;62;20419;-62
2022/07/29 05:09:18;0.00;0.00;0.62;0.00;0.00;0.62;2.73;2.00;;;26.10;23.10;;;;;;2221329;62;20616;-61
2022/07/29 05:12:04;0.00;0.00;0.62;0.00;0.00;0.62;2.77;1.80;;;26.10;23.10;;;;;;2225514;62;20381;-61
2022/07/29 05:14:49;0.00;0.00;0.62;0.00;0.00;0.62;2.60;2.20;;;26.00;23.10;;;;;;2225839;62;20381;-62
2022/07/29 05:17:33;0.00;0.00;0.62;0.00;0.00;0.62;4.33;2.47;;;26.00;23.10;;;;;;2225313;62;20409;-62
2022/07/29 05:20:18;0.00;0.00;0.62;0.00;0.00;0.62;3.10;1.63;;;26.00;23.20;;;;;;2225754;62;20410;-62
2022/07/29 05:23:04;0.00;0.00;0.62;0.00;0.00;0.62;2.83;1.57;;;26.00;23.20;;;;;;2226041;62;20385;-61
2022/07/29 05:25:49;0.00;0.00;0.62;0.00;0.00;0.62;3.20;1.90;;;26.00;23.20;;;;;;2226083;62;20370;-61
2022/07/29 05:28:35;0.00;0.00;0.62;0.00;0.00;0.62;2.90;1.50;;;26.00;23.20;;;;;;2225773;62;20411;-62
2022/07/29 05:31:19;0.00;0.00;0.62;0.00;0.00;0.62;2.23;1.47;;;26.00;23.20;;;;;;2225339;62;20453;-62
2022/07/29 05:34:04;0.00;0.00;0.62;0.00;0.00;0.62;2.20;1.50;;;26.00;23.30;;;;;;2225994;62;20385;-62
2022/07/29 05:36:49;0.00;0.00;0.62;0.00;0.00;0.62;2.80;1.97;;;26.00;23.30;;;;;;2225873;62;20406;-62
2022/07/29 05:39:36;0.00;0.00;0.62;0.00;0.00;0.62;3.00;1.70;;;26.00;23.40;;;;;;2225090;62;20415;-62
2022/07/29 05:42:21;0.00;0.00;0.62;0.00;0.00;0.62;3.63;2.00;;;26.00;23.40;;;;;;2225875;62;20378;-62
2022/07/29 05:45:07;0.00;0.00;0.62;0.00;0.00;0.62;5.00;1.60;;;25.90;23.40;;;;;;2226092;62;20402;-62
2022/07/29 05:47:52;0.00;0.00;0.62;0.00;0.00;0.62;3.50;2.00;;;25.90;23.40;;;;;;2225934;62;20396;-62
2022/07/29 05:50:36;0.00;0.00;0.62;0.00;0.00;0.62;2.70;1.83;;;25.90;23.40;;;;;;2225536;62;20382;-61
2022/07/29 05:53:21;0.00;0.00;0.62;0.00;0.00;0.62;4.20;2.10;;;25.90;23.50;;;;;;2225397;62;20469;-62
2022/07/29 05:56:07;0.00;0.00;0.62;0.00;0.00;0.62;2.10;1.53;;;25.90;23.50;;;;;;2226595;62;20418;-62
2022/07/29 05:58:52;0.00;0.00;0.62;0.00;0.00;0.62;2.83;1.70;;;25.80;23.50;;;;;;2226693;62;20450;-61
2022/07/29 06:01:39;0.00;0.00;0.62;0.00;0.00;0.62;2.50;1.60;;;25.80;23.50;;;;;;2223156;62;20383;-62
2022/07/29 06:04:24;0.00;0.00;0.62;0.00;0.00;0.62;2.97;2.10;;;25.80;23.50;;;;;;2225076;62;20418;-61
2022/07/29 06:07:09;0.00;0.00;0.62;0.00;0.00;0.62;2.27;1.60;;;25.80;23.60;;;;;;2222802;62;20370;-61
2022/07/29 06:09:53;0.00;0.00;0.62;0.00;0.00;0.62;2.77;2.40;;;25.80;23.70;;;;;;2222082;62;20408;-62
2022/07/29 06:12:39;0.00;0.00;0.62;0.00;0.00;0.62;3.47;1.87;;;25.80;23.80;;;;;;2605852;46;20363;-63
2022/07/29 06:15:24;0.00;0.00;0.62;0.00;0.00;0.62;2.80;2.17;;;25.80;23.90;;;;;;2222043;62;20363;-64
2022/07/29 06:18:10;0.00;0.00;0.62;0.00;0.00;0.62;4.20;2.50;;;25.70;23.90;;;;;;2222168;62;20406;-64
2022/07/29 06:20:55;0.00;0.00;0.62;0.00;0.00;0.62;4.30;1.87;;;25.70;24.00;;;;;;2223966;62;20406;-65
2022/07/29 06:23:40;0.00;0.00;0.62;0.00;0.00;0.62;2.90;2.30;;;25.70;24.20;;;;;;2225894;62;20484;-67
2022/07/29 06:26:24;0.00;0.00;0.62;0.00;0.00;0.62;5.97;2.77;;;25.70;24.20;;;;;;2226553;62;20366;-67
2022/07/29 06:29:11;0.00;0.00;0.62;0.00;0.00;0.62;2.43;2.20;;;25.70;24.30;;;;;;2226296;62;20373;-62
2022/07/29 06:31:56;0.00;0.00;0.62;0.00;0.00;0.62;5.63;1.83;;;25.70;24.40;;;;;;2225867;62;20768;-67
2022/07/29 06:34:40;0.00;0.00;0.62;0.00;0.00;0.62;3.83;2.30;;;25.60;24.30;;;;;;2226236;62;20411;-65
2022/07/29 06:37:25;0.00;0.00;0.62;0.00;0.00;0.62;7.63;1.50;;;25.60;24.30;;;;;;2225923;62;20374;-63
2022/07/29 06:43:17;0.00;0.00;0.62;0.00;0.00;0.62;3.57;1.90;;;25.60;24.30;;;;;;2228574;62;20406;-61
2022/07/29 06:46:07;0.00;0.00;0.62;0.00;0.00;0.62;6.80;1.63;;;25.60;24.30;;;;;;2228332;62;20416;-60
2022/07/29 06:48:53;0.00;0.00;0.62;0.00;0.00;0.62;4.13;2.33;;;25.60;24.40;;;;;;2228044;62;20370;-64
2022/07/29 06:51:38;0.00;0.00;0.62;0.00;0.00;0.62;5.00;2.43;;;25.60;24.40;;;;;;2224008;62;20472;-68
2022/07/29 06:54:23;0.00;0.00;0.62;0.00;0.00;0.62;5.63;2.67;;;25.60;24.40;;;;;;2246551;59;20771;-64
2022/07/29 06:57:07;0.00;0.00;0.62;0.00;0.00;0.62;6.03;2.53;;;25.60;24.50;;;;;;2222222;62;20367;-65
2022/07/29 06:59:52;0.00;0.00;0.62;0.00;0.00;0.62;4.70;2.30;;;25.60;24.60;;;;;;2222001;62;20367;-66
2022/07/29 07:02:38;0.00;0.00;0.62;0.00;0.00;0.62;3.70;1.90;;;25.60;24.60;;;;;;2223701;62;20371;-66
2022/07/29 07:05:23;0.00;0.00;0.62;0.00;0.00;0.62;2.50;1.67;;;25.60;24.60;;;;;;2221950;62;20391;-67
2022/07/29 07:08:08;0.00;0.00;0.62;0.00;0.00;0.62;3.00;2.00;;;25.60;24.60;;;;;;2221741;62;20399;-67
2022/07/29 07:10:54;0.00;0.00;0.62;0.00;0.00;0.62;2.33;1.77;;;25.60;24.60;;;;;;2221981;62;20378;-67
2022/07/29 07:13:40;0.00;0.00;0.62;0.00;0.00;0.62;4.67;2.33;;;25.60;24.60;;;;;;2253774;59;20448;-63
2022/07/29 07:16:24;0.00;0.00;0.62;0.00;0.00;0.62;3.57;2.43;;;25.60;24.60;;;;;;2221841;62;20486;-65
2022/07/29 07:19:10;0.00;0.00;0.62;0.00;0.00;0.62;4.80;2.03;;;25.70;24.80;;;;;;2220576;62;20400;-65
2022/07/29 07:21:55;0.00;0.00;0.62;0.00;0.00;0.62;3.93;2.27;;;25.70;24.90;;;;;;2221825;62;20415;-64
2022/07/29 07:24:40;0.00;0.00;0.62;0.00;0.00;0.62;6.63;2.73;;;25.70;24.90;;;;;;2222389;62;20395;-64
2022/07/29 07:27:25;0.00;0.00;0.62;0.00;0.00;0.62;3.40;1.87;;;25.70;24.90;;;;;;2222386;62;20374;-65
2022/07/29 07:30:10;0.00;0.00;0.62;0.00;0.00;0.62;6.80;2.40;;;25.70;24.90;;;;;;2219543;62;20403;-65
2022/07/29 07:32:55;0.00;0.00;0.62;0.00;0.00;0.62;4.57;2.50;;;25.70;24.90;;;;;;2481733;54;20393;-67
2022/07/29 07:35:41;0.00;0.00;0.62;0.00;0.00;0.62;6.00;2.43;;;25.70;24.90;;;;;;2226275;62;20578;-67
2022/07/29 07:38:26;0.00;0.00;0.62;0.00;0.00;0.62;3.83;2.23;;;25.70;25.00;;;;;;2226183;62;20378;-67
2022/07/29 07:41:11;0.00;0.00;0.62;0.00;0.00;0.62;2.87;1.80;;;25.70;24.90;;;;;;2224028;62;20379;-69
2022/07/29 07:43:55;0.00;0.00;0.62;0.00;0.00;0.62;3.60;2.03;;;25.70;24.90;;;;;;2222074;62;20448;-69
2022/07/29 07:46:40;0.00;0.00;0.62;0.00;0.00;0.62;2.37;1.70;;;25.70;24.90;;;;;;2222415;62;20374;-68
2022/07/29 07:49:25;0.00;0.00;0.62;0.00;0.00;0.62;4.67;2.70;;;25.70;24.90;;;;;;2223579;62;20363;-67
2022/07/29 07:52:11;0.00;0.00;0.62;0.00;0.00;0.62;4.30;2.80;;;25.80;25.10;;;;;;2218639;62;20423;-66
2022/07/29 07:54:56;0.00;0.00;0.62;0.00;0.00;0.62;4.83;2.40;;;25.70;25.00;;;;;;2221411;62;20371;-72
2022/07/29 07:57:41;0.00;0.00;0.62;0.00;0.00;0.62;3.37;2.53;;;25.80;25.10;;;;;;2222190;62;20612;-70
2022/07/29 08:00:26;0.00;0.00;0.62;0.00;0.00;0.62;2.20;1.77;;;25.80;25.20;;;;;;2221759;62;20426;-69
2022/07/29 08:03:14;0.00;0.00;0.62;0.00;0.00;0.62;2.90;2.10;;;25.80;25.10;;;;;;2221767;62;20391;-69
2022/07/29 08:05:59;0.00;0.00;0.62;0.00;0.00;0.62;6.03;1.80;;;25.80;25.00;;;;;;2222476;62;20645;-68
2022/07/29 08:08:45;0.00;0.00;0.62;0.00;0.00;0.62;7.60;2.37;;;25.80;25.00;;;;;;2222332;62;20392;-69
2022/07/29 08:11:30;0.00;0.00;0.62;0.00;0.00;0.62;7.20;2.63;;;25.80;25.10;;;;;;2222025;62;20493;-69
2022/07/29 08:14:15;0.00;0.00;0.62;0.00;0.00;0.62;3.90;2.40;;;25.80;25.10;;;;;;2222061;62;20752;-70
2022/07/29 08:17:00;0.00;0.00;0.62;0.00;0.00;0.62;6.13;2.27;;;25.80;25.10;;;;;;2222182;62;20789;-69
2022/07/29 08:19:45;0.00;0.00;0.62;0.00;0.00;0.62;5.67;2.10;;;25.80;25.10;;;;;;2222275;62;20390;-69
2022/07/29 08:22:30;0.00;0.00;0.62;0.00;0.00;0.62;3.90;2.50;;;25.80;25.10;;;;;;2245953;62;20401;-70
2022/07/29 08:25:20;0.00;0.00;0.62;0.00;0.00;0.62;4.07;2.20;;;25.80;25.10;;;;;;2222405;62;20578;-69
2022/07/29 08:28:05;0.00;0.00;0.62;0.00;0.00;0.62;3.03;2.00;;;25.80;25.10;;;;;;2222393;62;20591;-68
2022/07/29 08:30:49;0.00;0.00;0.62;0.00;0.00;0.62;3.87;2.50;;;25.80;25.20;;;;;;2222105;62;20398;-68
2022/07/29 08:33:34;0.00;0.00;0.62;0.00;0.00;0.62;4.43;2.50;;;25.80;25.30;;;;;;2221964;62;20438;-68
2022/07/29 08:36:20;0.00;0.00;0.62;0.00;0.00;0.62;5.93;2.10;;;25.80;25.20;;;;;;2222003;62;20366;-68
2022/07/29 08:39:05;0.00;0.00;0.62;0.00;0.00;0.62;4.53;2.40;;;25.80;25.30;;;;;;2222365;62;20420;-69
2022/07/29 08:41:52;0.00;0.00;0.62;0.00;0.00;0.62;3.70;2.57;;;25.80;25.30;;;;;;2221817;62;20366;-72
2022/07/29 08:44:37;0.00;0.00;0.62;0.00;0.00;0.62;5.37;2.17;;;25.80;25.30;;;;;;2221965;62;20512;-67
2022/07/29 08:47:22;0.00;0.00;0.62;0.00;0.00;0.62;3.90;2.30;;;25.80;25.30;;;;;;2222361;62;20488;-68
2022/07/29 08:50:08;0.00;0.00;0.62;0.00;0.00;0.62;3.27;2.30;;;25.80;25.30;;;;;;2221939;62;20374;-68
2022/07/29 08:52:53;0.00;0.00;0.62;0.00;0.00;0.62;4.23;2.10;;;25.90;25.30;;;;;;2454402;54;20385;-66
2022/07/29 08:55:42;0.00;0.00;0.62;0.00;0.00;0.62;6.00;2.73;;;25.90;25.40;;;;;;2225959;62;20430;-63
2022/07/29 08:58:33;0.00;0.00;0.62;0.00;0.00;0.62;8.83;2.70;;;25.90;25.50;;;;;;2225730;62;20400;-67
2022/07/29 09:01:23;0.00;0.00;0.62;0.00;0.00;0.62;3.60;2.90;;;25.90;25.60;;;;;;2225364;62;20378;-65
2022/07/29 09:04:11;0.00;0.00;0.62;0.00;0.00;0.62;4.03;2.63;;;25.90;25.60;;;;;;2225721;62;20474;-65
2022/07/29 09:06:59;0.00;0.00;0.62;0.00;0.00;0.62;5.43;2.77;;;25.90;25.60;;;;;;2225736;62;20387;-63
2022/07/29 09:09:44;0.00;0.00;0.62;0.00;0.00;0.62;4.97;2.70;;;25.90;25.70;;;;;;2225817;62;20403;-65
2022/07/29 09:12:30;0.00;0.00;0.62;0.00;0.00;0.62;3.80;2.50;;;25.90;25.70;;;;;;2248523;62;20402;-63
2022/07/29 09:15:17;0.00;0.00;0.62;0.00;0.00;0.62;4.30;2.23;;;25.90;25.70;;;;;;2226001;62;20362;-66
2022/07/29 09:18:03;0.00;0.00;0.62;0.00;0.00;0.62;4.30;2.30;;;25.90;25.70;;;;;;2225836;62;20374;-66
2022/07/29 09:24:06;0.00;0.00;0.62;0.00;0.00;0.62;4.30;2.37;;;25.90;25.70;;;;;;2222226;62;20391;-66
2022/07/29 09:26:51;0.00;0.00;0.62;0.00;0.00;0.62;5.60;2.60;;;25.90;25.70;;;;;;2222107;62;20366;-63
2022/07/29 09:29:37;0.00;0.00;0.62;0.00;0.00;0.62;5.53;2.80;;;25.90;25.70;;;;;;2222118;62;20446;-62
2022/07/29 09:32:25;0.00;0.00;0.62;0.00;0.00;0.62;5.47;3.00;;;25.90;25.80;;;;;;2222514;62;20428;-67
2022/07/29 09:35:18;0.00;0.00;0.62;0.00;0.00;0.62;3.87;2.97;;;25.90;25.80;;;;;;2222565;62;20375;-65
2022/07/29 09:38:11;0.00;0.00;0.62;0.00;0.00;0.62;4.30;3.30;;;25.90;25.90;;;;;;2222787;62;20420;-65
2022/07/29 09:40:57;0.00;0.00;0.62;0.00;0.00;0.62;3.10;2.43;;;25.90;25.90;;;;;;2222775;62;20419;-64
2022/07/29 09:43:54;0.00;0.00;0.62;0.00;0.00;0.62;2.80;2.40;;;25.90;25.90;;;;;;2226282;62;20389;-64
2022/07/29 09:46:38;0.00;0.00;0.62;0.00;0.00;0.62;4.80;2.67;;;25.90;25.90;;;;;;2226594;62;20771;-63
2022/07/29 09:49:25;0.00;0.00;0.62;0.00;0.00;0.62;5.37;2.60;;;25.90;25.80;;;;;;2226691;62;20362;-65
2022/07/29 09:52:11;0.00;0.00;0.62;0.00;0.00;0.62;3.87;2.40;;;25.90;25.90;;;;;;2226616;62;20374;-62
2022/07/29 09:55:05;0.00;0.00;0.62;0.00;0.00;0.62;5.33;2.60;;;25.90;25.90;;;;;;2226362;62;20431;-64
2022/07/29 09:57:50;0.00;0.00;0.62;0.00;0.00;0.62;6.30;2.80;;;25.90;26.00;;;;;;2226366;62;20451;-65
2022/07/29 10:00:42;0.00;0.00;0.62;0.00;0.00;0.62;3.50;2.50;;;26.00;26.10;;;;;;2225923;62;20368;-62
2022/07/29 10:03:27;0.00;0.00;0.62;0.00;0.00;0.62;5.30;3.00;;;25.90;26.00;;;;;;2226523;62;20390;-66
2022/07/29 10:06:13;0.00;0.00;0.62;0.00;0.00;0.62;3.40;2.47;;;25.90;26.10;;;;;;2226400;62;20405;-66
2022/07/29 10:09:08;0.00;0.00;0.62;0.00;0.00;0.62;4.63;3.20;;;26.00;26.10;;;;;;2226358;62;20373;-64
2022/07/29 10:12:08;0.00;0.00;0.62;0.00;0.00;0.62;2.60;2.27;;;25.90;26.10;;;;;;2225490;62;20378;-63
2022/07/29 10:14:54;0.00;0.00;0.62;0.00;0.00;0.62;6.63;2.70;;;25.90;26.00;;;;;;2226673;62;20426;-65
2022/07/29 10:17:39;0.00;0.00;0.62;0.00;0.00;0.62;5.63;2.60;;;25.90;26.00;;;;;;2226313;62;20452;-66
2022/07/29 10:20:27;0.00;0.00;0.62;0.00;0.00;0.62;3.00;2.00;;;25.90;26.10;;;;;;2225401;62;20383;-64
2022/07/29 10:23:14;0.00;0.00;0.62;0.00;0.00;0.62;3.50;2.70;;;26.00;26.10;;;;;;2222803;62;20414;-64
2022/07/29 10:25:59;0.00;0.00;0.62;0.00;0.00;0.62;3.00;2.73;;;26.00;26.10;;;;;;2222417;62;20367;-66
2022/07/29 10:28:44;0.00;0.00;0.62;0.00;0.00;0.62;3.27;2.90;;;26.00;26.10;;;;;;2222404;62;20616;-65
2022/07/29 10:31:42;0.00;0.00;0.62;0.00;0.00;0.62;3.93;2.97;;;26.00;26.10;;;;;;2222303;62;20382;-63
2022/07/29 10:34:45;0.00;0.00;0.62;0.00;0.00;0.62;4.43;3.20;;;26.00;26.20;;;;;;2222281;62;20409;-63
2022/07/29 10:37:45;0.00;0.00;0.62;0.00;0.00;0.62;4.37;2.60;;;26.00;26.20;;;;;;2222851;62;20424;-65
2022/07/29 10:43:51;0.00;0.00;0.62;0.00;0.00;0.62;4.03;2.80;;;26.00;26.20;;;;;;2226238;62;20401;-66
2022/07/29 10:46:38;0.00;0.00;0.62;0.00;0.00;0.62;5.70;3.30;;;26.00;26.30;;;;;;2226419;62;20407;-66
2022/07/29 10:49:25;0.00;0.00;0.62;0.00;0.00;0.62;4.00;2.20;;;26.00;26.30;;;;;;2226114;62;20369;-65
2022/07/29 10:52:10;0.00;0.00;0.62;0.00;0.00;0.62;3.67;2.60;;;26.00;26.30;;;;;;2225849;62;20423;-65
2022/07/29 10:54:58;0.00;0.00;0.62;0.00;0.00;0.62;8.50;3.67;;;26.00;26.40;;;;;;2226314;62;20506;-65
2022/07/29 10:58:13;0.00;0.00;0.62;0.00;0.00;0.62;3.10;2.53;;;26.00;26.40;;;;;;2226195;62;20390;-67
2022/07/29 11:01:18;0.00;0.00;0.62;0.00;0.00;0.62;5.00;3.33;;;26.00;26.40;;;;;;2225425;62;20385;-62
2022/07/29 11:04:04;0.00;0.00;0.62;0.00;0.00;0.62;4.97;3.27;;;26.00;26.50;;;;;;2226065;62;20434;-67
2022/07/29 11:07:17;0.00;0.00;0.62;0.00;0.00;0.62;3.70;2.87;;;26.00;26.50;;;;;;2226561;62;20746;-63
2022/07/29 11:10:25;0.00;0.00;0.62;0.00;0.00;0.62;2.80;2.50;;;26.00;27.10;;;;;;2220954;62;20430;-66
2022/07/29 11:13:12;0.00;0.00;0.62;0.00;0.00;0.62;7.30;3.50;;;26.00;26.60;;;;;;2217296;62;20431;-64